Mather, CA (95655)

12:50 PM PST on February 01, 2015 (GMT -0800)
Morrison Cr. at McRoberts Dr. | Change Station
CLOSE
Current Station
Personal Weather Station
Location: Mather, CA
Elevation: 112 ft
Nearby Weather Stations

Elev 112 ft 38.54 °N, 121.27 °W | Updated 46 seconds ago

Mostly Cloudy
Mostly Cloudy
62.9 °F
Feels Like 62.9 °F
N
0.0
Wind Variable Wind from SSW
Gusts 0.0 mph

Today
High -- | Low -- °F
--% Chance of Precip.
Yesterday
High -- | Low -- °F
Precip. -- in
7:10 AM 5:27 PM
Waxing Gibbous, 96% visible
Pressure 30.18 in
Visibility 7.0 miles
Clouds Mostly Cloudy 15000 ft
Dew Point 47 °F
Humidity 57%
Rainfall 0.00 in
Snow Depth Not available.
UV 2 out of 12
Pollen 7.30 out of 12
Air Quality Not available.
Flu Activity Not available.
METAR KMHR 011955Z 22005KT 7SM BKN150 16/13 A3018

More Conditions Fewer Conditions

Pressure 30.18 in
Visibility 7.0 miles
Clouds Mostly Cloudy 15000 ft
Dew Point 47 °F
Humidity 57%
Rainfall 0.00 in
Snow Depth Not available.
UV 2 out of 12
Pollen 7.30 out of 12
Air Quality Not available.
Flu Activity Not available.
METAR KMHR 011955Z 22005KT 7SM BKN150 16/13 A3018

More Conditions Fewer Conditions

10-Day Weather Forecast

Almanac

Astronomy

Feb. 01, 2015 Rise Set
Actual Time
Civil Twilight
Nautical Twilight
Astronomical Twilight
Moon
Length of Visible Light
Length of Day
Tomorrow will be .
, % of the Moon is Illuminated

Today's Extremes

State Highs State Lows

Community

WunderPhotos

Upload Photos

1,792,514 photos uploaded!

WunderBlogs® & News

Nearby

Air Quality

  Air Quality AQ Index Pollutant
Not available.

Snow Depth

Station Depth Elevation

Earthquake Activity

City Distance Mag. Time & Date
Minimum magnitude displayed is 2.5.

Coastal Water Temperatures

Place Temperature

Nearby Weather Stations